sensor_id;sensor_type;location;lat;lon;timestamp;pressure;altitude;pressure_sealevel;temperature;humidity
73453;BME280;61687;56.232;43.854;2023-05-14T00:02:25;101124.44;;;11.55;66.42
73453;BME280;61687;56.232;43.854;2023-05-14T00:04:52;101133.22;;;11.44;66.89
73453;BME280;61687;56.232;43.854;2023-05-14T00:07:19;101132.22;;;11.37;67.28
73453;BME280;61687;56.232;43.854;2023-05-14T00:09:45;101138.97;;;11.39;67.11
73453;BME280;61687;56.232;43.854;2023-05-14T00:12:11;101139.22;;;11.34;67.25
73453;BME280;61687;56.232;43.854;2023-05-14T00:14:38;101140.72;;;11.31;67.24
73453;BME280;61687;56.232;43.854;2023-05-14T00:17:04;101141.50;;;11.32;67.35
73453;BME280;61687;56.232;43.854;2023-05-14T00:19:31;101136.44;;;11.18;67.89
73453;BME280;61687;56.232;43.854;2023-05-14T00:21:57;101145.38;;;11.15;68.03
73453;BME280;61687;56.232;43.854;2023-05-14T00:24:24;101145.94;;;11.21;67.49
73453;BME280;61687;56.232;43.854;2023-05-14T00:26:50;101149.44;;;11.21;67.49
73453;BME280;61687;56.232;43.854;2023-05-14T00:29:16;101154.16;;;11.21;67.59
73453;BME280;61687;56.232;43.854;2023-05-14T00:31:42;101150.59;;;11.20;67.57
73453;BME280;61687;56.232;43.854;2023-05-14T00:34:08;101155.31;;;11.20;67.45
73453;BME280;61687;56.232;43.854;2023-05-14T00:36:33;101147.22;;;11.11;67.97
73453;BME280;61687;56.232;43.854;2023-05-14T00:39:00;101157.66;;;11.05;68.15
73453;BME280;61687;56.232;43.854;2023-05-14T00:41:25;101159.34;;;11.10;67.89
73453;BME280;61687;56.232;43.854;2023-05-14T00:43:52;101155.34;;;11.07;68.18
73453;BME280;61687;56.232;43.854;2023-05-14T00:46:18;101158.53;;;11.09;68.02
73453;BME280;61687;56.232;43.854;2023-05-14T00:48:45;101162.88;;;11.10;68.01
73453;BME280;61687;56.232;43.854;2023-05-14T00:51:11;101161.28;;;11.09;67.95
73453;BME280;61687;56.232;43.854;2023-05-14T00:53:37;101169.88;;;11.08;67.89
73453;BME280;61687;56.232;43.854;2023-05-14T00:56:04;101178.19;;;11.11;67.92
73453;BME280;61687;56.232;43.854;2023-05-14T00:58:31;101171.13;;;11.10;68.20
73453;BME280;61687;56.232;43.854;2023-05-14T01:00:57;101169.88;;;11.08;68.23
73453;BME280;61687;56.232;43.854;2023-05-14T01:03:24;101180.84;;;11.08;68.18
73453;BME280;61687;56.232;43.854;2023-05-14T01:06:00;101184.53;;;10.99;68.63
73453;BME280;61687;56.232;43.854;2023-05-14T01:11:31;101179.19;;;10.91;68.96
73453;BME280;61687;56.232;43.854;2023-05-14T01:16:58;101192.44;;;10.88;68.95
73453;BME280;61687;56.232;43.854;2023-05-14T01:19:44;101203.34;;;10.85;69.03
73453;BME280;61687;56.232;43.854;2023-05-14T01:22:12;101208.13;;;10.88;68.86
73453;BME280;61687;56.232;43.854;2023-05-14T01:24:38;101205.38;;;10.88;68.90
73453;BME280;61687;56.232;43.854;2023-05-14T01:27:23;101203.41;;;10.88;68.82
73453;BME280;61687;56.232;43.854;2023-05-14T01:30:17;101201.81;;;10.87;69.00
73453;BME280;61687;56.232;43.854;2023-05-14T01:32:47;101206.84;;;10.85;68.86
73453;BME280;61687;56.232;43.854;2023-05-14T01:35:16;101204.94;;;10.86;68.90
73453;BME280;61687;56.232;43.854;2023-05-14T01:37:43;101206.41;;;10.83;68.97
73453;BME280;61687;56.232;43.854;2023-05-14T01:40:11;101201.06;;;10.74;69.49
73453;BME280;61687;56.232;43.854;2023-05-14T01:42:39;101210.19;;;10.79;69.42
73453;BME280;61687;56.232;43.854;2023-05-14T01:45:06;101209.72;;;10.77;69.38
73453;BME280;61687;56.232;43.854;2023-05-14T01:47:33;101209.84;;;10.80;69.10
73453;BME280;61687;56.232;43.854;2023-05-14T01:49:59;101211.13;;;10.83;69.28
73453;BME280;61687;56.232;43.854;2023-05-14T01:52:25;101215.97;;;10.90;68.81
73453;BME280;61687;56.232;43.854;2023-05-14T01:54:51;101211.06;;;10.95;68.82
73453;BME280;61687;56.232;43.854;2023-05-14T01:57:17;101221.44;;;11.02;68.67
73453;BME280;61687;56.232;43.854;2023-05-14T01:59:43;101208.19;;;11.04;68.78
73453;BME280;61687;56.232;43.854;2023-05-14T02:02:09;101205.53;;;11.08;68.56
73453;BME280;61687;56.232;43.854;2023-05-14T02:04:36;101216.16;;;11.09;68.53
73453;BME280;61687;56.232;43.854;2023-05-14T02:07:02;101209.06;;;11.08;68.45
73453;BME280;61687;56.232;43.854;2023-05-14T02:09:28;101213.78;;;11.08;68.54
73453;BME280;61687;56.232;43.854;2023-05-14T02:11:55;101221.41;;;11.14;68.40
73453;BME280;61687;56.232;43.854;2023-05-14T02:14:21;101228.50;;;11.15;68.42
73453;BME280;61687;56.232;43.854;2023-05-14T02:16:47;101218.56;;;11.11;68.65
73453;BME280;61687;56.232;43.854;2023-05-14T02:19:13;101220.72;;;11.18;68.28
73453;BME280;61687;56.232;43.854;2023-05-14T02:21:59;101218.97;;;11.25;68.12
73453;BME280;61687;56.232;43.854;2023-05-14T02:24:26;101222.50;;;11.26;68.19
73453;BME280;61687;56.232;43.854;2023-05-14T02:26:52;101224.78;;;11.24;68.30
73453;BME280;61687;56.232;43.854;2023-05-14T02:29:18;101234.81;;;11.32;68.13
73453;BME280;61687;56.232;43.854;2023-05-14T02:31:45;101228.63;;;11.35;67.88
73453;BME280;61687;56.232;43.854;2023-05-14T02:34:11;101231.91;;;11.41;67.97
73453;BME280;61687;56.232;43.854;2023-05-14T02:36:37;101231.22;;;11.44;67.82
73453;BME280;61687;56.232;43.854;2023-05-14T02:39:03;101223.88;;;11.48;67.71
73453;BME280;61687;56.232;43.854;2023-05-14T02:41:29;101228.84;;;11.58;67.32
73453;BME280;61687;56.232;43.854;2023-05-14T02:43:56;101230.44;;;11.59;67.29
73453;BME280;61687;56.232;43.854;2023-05-14T02:46:22;101232.16;;;11.64;67.03
73453;BME280;61687;56.232;43.854;2023-05-14T02:48:48;101245.72;;;11.73;67.03
73453;BME280;61687;56.232;43.854;2023-05-14T02:51:14;101235.97;;;11.76;66.77
73453;BME280;61687;56.232;43.854;2023-05-14T02:53:40;101244.41;;;11.83;66.82
73453;BME280;61687;56.232;43.854;2023-05-14T02:56:06;101244.94;;;11.88;66.52
73453;BME280;61687;56.232;43.854;2023-05-14T02:58:33;101250.06;;;11.90;66.42
73453;BME280;61687;56.232;43.854;2023-05-14T03:00:59;101253.34;;;11.96;66.32
73453;BME280;61687;56.232;43.854;2023-05-14T03:03:25;101260.06;;;11.98;66.19
73453;BME280;61687;56.232;43.854;2023-05-14T03:05:51;101261.22;;;11.97;65.86
73453;BME280;61687;56.232;43.854;2023-05-14T03:08:16;101257.56;;;12.06;65.65
73453;BME280;61687;56.232;43.854;2023-05-14T03:10:43;101259.59;;;12.09;65.13
73453;BME280;61687;56.232;43.854;2023-05-14T03:13:09;101257.28;;;12.11;64.93
73453;BME280;61687;56.232;43.854;2023-05-14T03:15:35;101260.47;;;12.13;64.75
73453;BME280;61687;56.232;43.854;2023-05-14T03:18:01;101258.59;;;12.17;64.78
73453;BME280;61687;56.232;43.854;2023-05-14T03:20:27;101256.84;;;12.25;64.32
73453;BME280;61687;56.232;43.854;2023-05-14T03:22:53;101258.53;;;12.29;63.93
73453;BME280;61687;56.232;43.854;2023-05-14T03:25:20;101264.56;;;12.35;63.98
73453;BME280;61687;56.232;43.854;2023-05-14T03:27:46;101264.00;;;12.45;64.19
73453;BME280;61687;56.232;43.854;2023-05-14T03:30:12;101262.94;;;12.50;63.46
73453;BME280;61687;56.232;43.854;2023-05-14T03:32:38;101267.44;;;12.58;63.32
73453;BME280;61687;56.232;43.854;2023-05-14T03:35:05;101272.31;;;12.65;62.28
73453;BME280;61687;56.232;43.854;2023-05-14T03:37:31;101277.97;;;12.72;62.17
73453;BME280;61687;56.232;43.854;2023-05-14T03:39:57;101278.19;;;12.83;61.96
73453;BME280;61687;56.232;43.854;2023-05-14T03:42:23;101266.94;;;12.88;61.50
73453;BME280;61687;56.232;43.854;2023-05-14T03:44:49;101284.66;;;12.91;61.60
73453;BME280;61687;56.232;43.854;2023-05-14T03:47:15;101285.28;;;13.00;61.29
73453;BME280;61687;56.232;43.854;2023-05-14T03:49:41;101285.13;;;13.13;61.04
73453;BME280;61687;56.232;43.854;2023-05-14T03:52:09;101285.56;;;13.15;60.68
73453;BME280;61687;56.232;43.854;2023-05-14T03:54:35;101285.28;;;13.20;60.57
73453;BME280;61687;56.232;43.854;2023-05-14T03:57:01;101289.69;;;13.25;60.62
73453;BME280;61687;56.232;43.854;2023-05-14T03:59:27;101286.25;;;13.28;60.75
73453;BME280;61687;56.232;43.854;2023-05-14T04:01:53;101286.28;;;13.31;60.73
73453;BME280;61687;56.232;43.854;2023-05-14T04:04:19;101284.88;;;13.38;60.56
73453;BME280;61687;56.232;43.854;2023-05-14T04:06:45;101290.84;;;13.24;59.98
73453;BME280;61687;56.232;43.854;2023-05-14T04:09:11;101301.16;;;12.91;60.75
73453;BME280;61687;56.232;43.854;2023-05-14T04:11:37;101297.97;;;12.89;60.90
73453;BME280;61687;56.232;43.854;2023-05-14T04:14:03;101293.47;;;12.81;60.66
73453;BME280;61687;56.232;43.854;2023-05-14T04:16:30;101302.41;;;12.94;60.64
73453;BME280;61687;56.232;43.854;2023-05-14T04:18:56;101295.19;;;13.05;60.50
73453;BME280;61687;56.232;43.854;2023-05-14T04:21:22;101301.06;;;13.23;60.28
73453;BME280;61687;56.232;43.854;2023-05-14T04:23:48;101292.75;;;13.39;60.07
73453;BME280;61687;56.232;43.854;2023-05-14T04:26:15;101287.91;;;13.52;59.84
73453;BME280;61687;56.232;43.854;2023-05-14T04:28:41;101296.69;;;13.58;59.45
73453;BME280;61687;56.232;43.854;2023-05-14T04:31:07;101290.13;;;13.66;59.04
73453;BME280;61687;56.232;43.854;2023-05-14T04:33:33;101295.28;;;13.68;58.22
73453;BME280;61687;56.232;43.854;2023-05-14T04:35:59;101295.72;;;13.70;58.40
73453;BME280;61687;56.232;43.854;2023-05-14T04:38:25;101290.84;;;13.83;58.19
73453;BME280;61687;56.232;43.854;2023-05-14T04:40:51;101284.34;;;13.95;57.65
73453;BME280;61687;56.232;43.854;2023-05-14T04:43:17;101296.41;;;14.10;57.56
73453;BME280;61687;56.232;43.854;2023-05-14T04:45:42;101294.47;;;14.34;57.34
73453;BME280;61687;56.232;43.854;2023-05-14T04:48:08;101297.56;;;14.55;56.94
73453;BME280;61687;56.232;43.854;2023-05-14T04:50:34;101294.81;;;14.55;56.68
73453;BME280;61687;56.232;43.854;2023-05-14T04:53:00;101301.50;;;14.54;56.70
73453;BME280;61687;56.232;43.854;2023-05-14T04:55:31;101307.22;;;14.42;56.36
73453;BME280;61687;56.232;43.854;2023-05-14T04:57:57;101298.16;;;14.18;56.70
73453;BME280;61687;56.232;43.854;2023-05-14T05:00:23;101303.88;;;13.86;57.30
73453;BME280;61687;56.232;43.854;2023-05-14T05:02:50;101308.84;;;14.00;57.39
73453;BME280;61687;56.232;43.854;2023-05-14T05:05:16;101304.88;;;14.21;57.06
73453;BME280;61687;56.232;43.854;2023-05-14T05:07:42;101311.81;;;14.34;56.40
73453;BME280;61687;56.232;43.854;2023-05-14T05:10:08;101309.72;;;14.51;56.27
73453;BME280;61687;56.232;43.854;2023-05-14T05:12:34;101310.84;;;14.73;55.94
73453;BME280;61687;56.232;43.854;2023-05-14T05:15:00;101311.53;;;14.93;55.73
73453;BME280;61687;56.232;43.854;2023-05-14T05:17:28;101312.19;;;15.13;55.25
73453;BME280;61687;56.232;43.854;2023-05-14T05:19:54;101317.22;;;15.35;54.64
73453;BME280;61687;56.232;43.854;2023-05-14T05:22:20;101309.47;;;15.48;53.90
73453;BME280;61687;56.232;43.854;2023-05-14T05:24:46;101311.13;;;15.52;53.47
73453;BME280;61687;56.232;43.854;2023-05-14T05:27:12;101312.81;;;15.64;53.40
73453;BME280;61687;56.232;43.854;2023-05-14T05:29:38;101319.28;;;15.79;53.28
73453;BME280;61687;56.232;43.854;2023-05-14T05:32:05;101311.88;;;15.87;52.89
73453;BME280;61687;56.232;43.854;2023-05-14T05:34:31;101308.84;;;15.62;52.83
73453;BME280;61687;56.232;43.854;2023-05-14T05:36:57;101314.19;;;15.81;52.53
73453;BME280;61687;56.232;43.854;2023-05-14T05:39:23;101304.75;;;15.86;52.63
73453;BME280;61687;56.232;43.854;2023-05-14T05:41:49;101310.44;;;15.97;51.58
73453;BME280;61687;56.232;43.854;2023-05-14T05:44:15;101304.81;;;15.90;51.56
73453;BME280;61687;56.232;43.854;2023-05-14T05:46:41;101305.44;;;15.76;51.46
73453;BME280;61687;56.232;43.854;2023-05-14T05:49:07;101302.91;;;15.94;51.75
73453;BME280;61687;56.232;43.854;2023-05-14T05:51:33;101304.25;;;15.73;51.88
73453;BME280;61687;56.232;43.854;2023-05-14T05:53:59;101297.38;;;15.97;51.38
73453;BME280;61687;56.232;43.854;2023-05-14T05:56:25;101299.81;;;16.02;51.09
73453;BME280;61687;56.232;43.854;2023-05-14T05:58:51;101299.25;;;16.27;51.03
73453;BME280;61687;56.232;43.854;2023-05-14T06:01:17;101311.41;;;16.71;50.86
73453;BME280;61687;56.232;43.854;2023-05-14T06:03:43;101307.78;;;17.23;49.88
73453;BME280;61687;56.232;43.854;2023-05-14T06:06:08;101310.19;;;17.32;48.92
73453;BME280;61687;56.232;43.854;2023-05-14T06:08:35;101316.38;;;17.07;48.51
73453;BME280;61687;56.232;43.854;2023-05-14T06:11:01;101314.03;;;17.13;48.81
73453;BME280;61687;56.232;43.854;2023-05-14T06:13:27;101312.09;;;17.21;48.68
73453;BME280;61687;56.232;43.854;2023-05-14T06:15:53;101312.47;;;17.12;48.79
73453;BME280;61687;56.232;43.854;2023-05-14T06:18:19;101312.53;;;17.26;48.83
73453;BME280;61687;56.232;43.854;2023-05-14T06:20:44;101312.97;;;17.32;48.11
73453;BME280;61687;56.232;43.854;2023-05-14T06:23:10;101307.38;;;17.25;48.32
73453;BME280;61687;56.232;43.854;2023-05-14T06:25:37;101311.63;;;17.00;48.22
73453;BME280;61687;56.232;43.854;2023-05-14T06:28:02;101309.41;;;17.35;48.43
73453;BME280;61687;56.232;43.854;2023-05-14T06:30:28;101312.66;;;17.66;47.59
73453;BME280;61687;56.232;43.854;2023-05-14T06:32:55;101304.34;;;17.66;47.20
73453;BME280;61687;56.232;43.854;2023-05-14T06:35:20;101306.38;;;17.87;47.15
73453;BME280;61687;56.232;43.854;2023-05-14T06:37:46;101291.72;;;17.94;46.92
73453;BME280;61687;56.232;43.854;2023-05-14T06:40:12;101304.47;;;18.17;46.70
73453;BME280;61687;56.232;43.854;2023-05-14T06:42:40;101300.81;;;17.84;45.62
73453;BME280;61687;56.232;43.854;2023-05-14T06:45:07;101300.31;;;17.38;46.49
73453;BME280;61687;56.232;43.854;2023-05-14T06:47:33;101307.03;;;17.44;46.46
73453;BME280;61687;56.232;43.854;2023-05-14T06:49:59;101306.69;;;17.57;46.74
73453;BME280;61687;56.232;43.854;2023-05-14T06:52:30;101291.69;;;17.72;46.68
73453;BME280;61687;56.232;43.854;2023-05-14T06:54:56;101309.13;;;17.80;45.90
73453;BME280;61687;56.232;43.854;2023-05-14T06:57:22;101307.59;;;17.97;45.67
73453;BME280;61687;56.232;43.854;2023-05-14T06:59:48;101300.03;;;17.87;45.60
73453;BME280;61687;56.232;43.854;2023-05-14T07:02:14;101302.44;;;18.03;45.50
73453;BME280;61687;56.232;43.854;2023-05-14T07:04:40;101301.28;;;18.26;45.03
73453;BME280;61687;56.232;43.854;2023-05-14T07:07:06;101302.44;;;18.36;44.59
73453;BME280;61687;56.232;43.854;2023-05-14T07:09:33;101302.81;;;18.78;44.83
73453;BME280;61687;56.232;43.854;2023-05-14T07:11:59;101301.50;;;19.22;44.71
73453;BME280;61687;56.232;43.854;2023-05-14T07:14:25;101306.97;;;19.48;43.01
73453;BME280;61687;56.232;43.854;2023-05-14T07:16:51;101311.31;;;19.45;42.48
73453;BME280;61687;56.232;43.854;2023-05-14T07:19:17;101306.13;;;19.54;42.22
73453;BME280;61687;56.232;43.854;2023-05-14T07:21:43;101310.00;;;19.71;42.61
73453;BME280;61687;56.232;43.854;2023-05-14T07:24:09;101300.69;;;19.33;41.81
73453;BME280;61687;56.232;43.854;2023-05-14T07:26:35;101307.97;;;18.72;42.45
73453;BME280;61687;56.232;43.854;2023-05-14T07:29:01;101311.13;;;18.88;42.89
73453;BME280;61687;56.232;43.854;2023-05-14T07:31:27;101315.06;;;18.95;42.19
73453;BME280;61687;56.232;43.854;2023-05-14T07:33:53;101320.69;;;18.40;42.85
73453;BME280;61687;56.232;43.854;2023-05-14T07:36:19;101319.09;;;18.50;43.15
73453;BME280;61687;56.232;43.854;2023-05-14T07:38:45;101317.94;;;18.04;43.52
73453;BME280;61687;56.232;43.854;2023-05-14T07:41:11;101326.91;;;17.68;44.65
73453;BME280;61687;56.232;43.854;2023-05-14T07:43:37;101323.69;;;17.44;45.31
73453;BME280;61687;56.232;43.854;2023-05-14T07:46:05;101329.25;;;17.52;45.89
73453;BME280;61687;56.232;43.854;2023-05-14T07:48:31;101331.28;;;17.66;46.24
73453;BME280;61687;56.232;43.854;2023-05-14T07:50:57;101338.06;;;17.83;45.86
73453;BME280;61687;56.232;43.854;2023-05-14T07:53:23;101329.34;;;17.81;45.05
73453;BME280;61687;56.232;43.854;2023-05-14T07:55:49;101336.41;;;17.67;45.31
73453;BME280;61687;56.232;43.854;2023-05-14T07:58:16;101334.84;;;17.66;45.53
73453;BME280;61687;56.232;43.854;2023-05-14T08:00:42;101331.22;;;17.51;44.89
73453;BME280;61687;56.232;43.854;2023-05-14T08:03:08;101335.56;;;17.45;44.97
73453;BME280;61687;56.232;43.854;2023-05-14T08:05:34;101334.03;;;17.55;44.26
73453;BME280;61687;56.232;43.854;2023-05-14T08:08:00;101335.25;;;17.65;44.40
73453;BME280;61687;56.232;43.854;2023-05-14T08:10:26;101330.94;;;17.85;45.38
73453;BME280;61687;56.232;43.854;2023-05-14T08:12:52;101334.53;;;18.00;44.54
73453;BME280;61687;56.232;43.854;2023-05-14T08:15:18;101337.25;;;17.93;44.49
73453;BME280;61687;56.232;43.854;2023-05-14T08:17:44;101338.44;;;17.85;45.00
73453;BME280;61687;56.232;43.854;2023-05-14T08:20:10;101326.19;;;18.00;44.90
73453;BME280;61687;56.232;43.854;2023-05-14T08:22:36;101335.38;;;18.26;44.08
73453;BME280;61687;56.232;43.854;2023-05-14T08:25:03;101343.28;;;18.17;43.14
73453;BME280;61687;56.232;43.854;2023-05-14T08:27:32;101335.31;;;18.01;43.07
73453;BME280;61687;56.232;43.854;2023-05-14T08:29:58;101347.84;;;17.51;43.82
73453;BME280;61687;56.232;43.854;2023-05-14T08:32:25;101343.94;;;17.63;44.23
73453;BME280;61687;56.232;43.854;2023-05-14T08:34:51;101341.97;;;17.71;43.78
73453;BME280;61687;56.232;43.854;2023-05-14T08:37:17;101353.13;;;17.85;43.85
73453;BME280;61687;56.232;43.854;2023-05-14T08:39:43;101334.56;;;18.08;44.22
73453;BME280;61687;56.232;43.854;2023-05-14T08:42:11;101337.38;;;18.37;42.84
73453;BME280;61687;56.232;43.854;2023-05-14T08:44:47;101336.94;;;18.35;43.25
73453;BME280;61687;56.232;43.854;2023-05-14T08:47:17;101337.38;;;18.37;42.80
73453;BME280;61687;56.232;43.854;2023-05-14T08:49:46;101345.66;;;18.40;43.39
73453;BME280;61687;56.232;43.854;2023-05-14T08:52:15;101340.09;;;18.62;43.29
73453;BME280;61687;56.232;43.854;2023-05-14T08:54:44;101342.84;;;18.84;43.26
73453;BME280;61687;56.232;43.854;2023-05-14T08:57:10;101334.88;;;18.97;43.17
73453;BME280;61687;56.232;43.854;2023-05-14T08:59:37;101333.72;;;19.05;43.19
73453;BME280;61687;56.232;43.854;2023-05-14T09:02:04;101340.44;;;19.11;42.30
73453;BME280;61687;56.232;43.854;2023-05-14T09:04:31;101334.13;;;19.11;42.67
73453;BME280;61687;56.232;43.854;2023-05-14T09:06:59;101336.50;;;19.01;42.53
73453;BME280;61687;56.232;43.854;2023-05-14T09:09:26;101336.50;;;18.87;42.88
73453;BME280;61687;56.232;43.854;2023-05-14T09:11:52;101336.91;;;18.82;42.72
73453;BME280;61687;56.232;43.854;2023-05-14T09:14:19;101343.69;;;18.48;42.70
73453;BME280;61687;56.232;43.854;2023-05-14T09:16:47;101342.88;;;18.11;43.02
73453;BME280;61687;56.232;43.854;2023-05-14T09:19:14;101341.72;;;18.30;43.22
73453;BME280;61687;56.232;43.854;2023-05-14T09:21:41;101343.69;;;18.37;43.18
73453;BME280;61687;56.232;43.854;2023-05-14T09:24:20;101343.28;;;18.46;43.14
73453;BME280;61687;56.232;43.854;2023-05-14T09:26:54;101340.53;;;18.57;42.69
73453;BME280;61687;56.232;43.854;2023-05-14T09:29:23;101342.91;;;18.37;43.59
73453;BME280;61687;56.232;43.854;2023-05-14T09:31:51;101345.25;;;18.74;43.79
73453;BME280;61687;56.232;43.854;2023-05-14T09:34:24;101342.03;;;18.98;42.64
73453;BME280;61687;56.232;43.854;2023-05-14T09:36:55;101344.38;;;19.21;42.73
73453;BME280;61687;56.232;43.854;2023-05-14T09:39:23;101339.66;;;19.04;41.55
73453;BME280;61687;56.232;43.854;2023-05-14T09:41:49;101342.03;;;18.98;42.23
73453;BME280;61687;56.232;43.854;2023-05-14T09:44:19;101338.41;;;19.34;42.22
73453;BME280;61687;56.232;43.854;2023-05-14T09:46:45;101338.41;;;19.34;41.57
73453;BME280;61687;56.232;43.854;2023-05-14T09:49:12;101333.22;;;19.28;41.17
73453;BME280;61687;56.232;43.854;2023-05-14T09:51:38;101337.91;;;19.50;42.02
73453;BME280;61687;56.232;43.854;2023-05-14T09:54:04;101342.88;;;19.87;41.64
73453;BME280;61687;56.232;43.854;2023-05-14T09:56:32;101341.47;;;20.25;40.93
73453;BME280;61687;56.232;43.854;2023-05-14T09:58:58;101342.59;;;20.35;40.24
73453;BME280;61687;56.232;43.854;2023-05-14T10:01:24;101339.72;;;20.45;39.91
73453;BME280;61687;56.232;43.854;2023-05-14T10:03:54;101345.84;;;20.22;39.18
73453;BME280;61687;56.232;43.854;2023-05-14T10:06:30;101336.66;;;19.65;40.41
73453;BME280;61687;56.232;43.854;2023-05-14T10:09:02;101326.75;;;19.64;40.73
73453;BME280;61687;56.232;43.854;2023-05-14T10:11:36;101343.00;;;19.69;41.26
73453;BME280;61687;56.232;43.854;2023-05-14T10:14:19;101346.16;;;19.71;41.50
73453;BME280;61687;56.232;43.854;2023-05-14T10:16:49;101343.28;;;19.93;40.90
73453;BME280;61687;56.232;43.854;2023-05-14T10:19:17;101345.06;;;20.22;40.54
73453;BME280;61687;56.232;43.854;2023-05-14T10:21:55;101342.88;;;19.84;40.03
73453;BME280;61687;56.232;43.854;2023-05-14T10:24:23;101335.84;;;19.68;40.33
73453;BME280;61687;56.232;43.854;2023-05-14T10:26:50;101337.16;;;19.42;40.85
73453;BME280;61687;56.232;43.854;2023-05-14T10:29:16;101331.97;;;19.48;41.00
73453;BME280;61687;56.232;43.854;2023-05-14T10:31:50;101334.03;;;19.29;41.66
73453;BME280;61687;56.232;43.854;2023-05-14T10:34:39;101333.69;;;19.12;42.38
73453;BME280;61687;56.232;43.854;2023-05-14T10:37:11;101332.94;;;19.01;42.55
73453;BME280;61687;56.232;43.854;2023-05-14T10:39:50;101325.44;;;18.69;42.60
73453;BME280;61687;56.232;43.854;2023-05-14T10:42:18;101331.00;;;18.47;42.56
73453;BME280;61687;56.232;43.854;2023-05-14T10:44:50;101336.53;;;18.54;42.88
73453;BME280;61687;56.232;43.854;2023-05-14T10:47:17;101332.56;;;18.66;43.11
73453;BME280;61687;56.232;43.854;2023-05-14T10:49:44;101336.53;;;18.83;42.81
73453;BME280;61687;56.232;43.854;2023-05-14T10:52:16;101340.44;;;18.97;41.97
73453;BME280;61687;56.232;43.854;2023-05-14T10:54:54;101340.44;;;18.97;41.77
73453;BME280;61687;56.232;43.854;2023-05-14T10:57:22;101335.75;;;18.65;42.45
73453;BME280;61687;56.232;43.854;2023-05-14T10:59:51;101332.97;;;18.36;42.70
73453;BME280;61687;56.232;43.854;2023-05-14T11:02:32;101329.41;;;18.68;42.35
73453;BME280;61687;56.232;43.854;2023-05-14T11:04:59;101335.19;;;19.39;41.49
73453;BME280;61687;56.232;43.854;2023-05-14T11:10:12;101331.81;;;18.37;42.96
73453;BME280;61687;56.232;43.854;2023-05-14T11:12:41;101346.78;;;17.88;43.78
73453;BME280;61687;56.232;43.854;2023-05-14T11:15:09;101339.50;;;17.48;44.71
73453;BME280;61687;56.232;43.854;2023-05-14T11:17:38;101344.66;;;17.45;45.18
73453;BME280;61687;56.232;43.854;2023-05-14T11:20:05;101345.88;;;17.48;44.96
73453;BME280;61687;56.232;43.854;2023-05-14T11:22:34;101351.19;;;17.05;45.69
73453;BME280;61687;56.232;43.854;2023-05-14T11:25:00;101344.75;;;16.93;45.93
73453;BME280;61687;56.232;43.854;2023-05-14T11:27:26;101351.06;;;16.90;45.93
73453;BME280;61687;56.232;43.854;2023-05-14T11:29:52;101353.03;;;17.53;45.08
73453;BME280;61687;56.232;43.854;2023-05-14T11:32:20;101351.63;;;18.46;44.29
73453;BME280;61687;56.232;43.854;2023-05-14T11:34:46;101348.44;;;18.73;43.59
73453;BME280;61687;56.232;43.854;2023-05-14T11:37:14;101352.38;;;18.97;42.80
73453;BME280;61687;56.232;43.854;2023-05-14T11:42:28;101352.00;;;19.99;41.61
73453;BME280;61687;56.232;43.854;2023-05-14T11:44:54;101352.47;;;19.79;42.20
73453;BME280;61687;56.232;43.854;2023-05-14T11:47:21;101362.84;;;19.71;42.05
73453;BME280;61687;56.232;43.854;2023-05-14T11:49:47;101350.72;;;19.25;43.47
73453;BME280;61687;56.232;43.854;2023-05-14T11:52:15;101352.34;;;19.23;43.76
73453;BME280;61687;56.232;43.854;2023-05-14T11:54:44;101345.16;;;19.25;43.84
73453;BME280;61687;56.232;43.854;2023-05-14T11:57:15;101345.06;;;19.47;43.91
73453;BME280;61687;56.232;43.854;2023-05-14T11:59:43;101346.56;;;19.70;44.71
73453;BME280;61687;56.232;43.854;2023-05-14T12:02:11;101350.53;;;19.69;44.13
73453;BME280;61687;56.232;43.854;2023-05-14T12:04:37;101351.41;;;19.55;44.50
73453;BME280;61687;56.232;43.854;2023-05-14T12:07:08;101354.69;;;19.28;44.16
73453;BME280;61687;56.232;43.854;2023-05-14T12:09:36;101359.16;;;18.74;44.12
73453;BME280;61687;56.232;43.854;2023-05-14T12:12:08;101357.19;;;18.35;43.83
73453;BME280;61687;56.232;43.854;2023-05-14T12:14:40;101360.22;;;17.83;45.98
73453;BME280;61687;56.232;43.854;2023-05-14T12:17:15;101372.00;;;17.54;47.52
73453;BME280;61687;56.232;43.854;2023-05-14T12:19:42;101381.34;;;17.21;49.89
73453;BME280;61687;56.232;43.854;2023-05-14T12:22:09;101391.31;;;16.73;52.97
73453;BME280;61687;56.232;43.854;2023-05-14T12:24:36;101377.88;;;16.26;54.62
73453;BME280;61687;56.232;43.854;2023-05-14T12:27:04;101382.06;;;16.13;56.36
73453;BME280;61687;56.232;43.854;2023-05-14T12:29:34;101381.16;;;16.01;56.84
73453;BME280;61687;56.232;43.854;2023-05-14T12:32:01;101373.81;;;16.16;57.77
73453;BME280;61687;56.232;43.854;2023-05-14T12:34:29;101378.22;;;16.25;57.01
73453;BME280;61687;56.232;43.854;2023-05-14T12:36:55;101377.47;;;16.28;56.15
73453;BME280;61687;56.232;43.854;2023-05-14T12:39:21;101370.75;;;16.29;56.60
73453;BME280;61687;56.232;43.854;2023-05-14T12:41:47;101368.06;;;16.36;56.88
73453;BME280;61687;56.232;43.854;2023-05-14T12:44:13;101370.97;;;16.54;58.82
73453;BME280;61687;56.232;43.854;2023-05-14T12:46:39;101369.53;;;16.68;56.70
73453;BME280;61687;56.232;43.854;2023-05-14T12:49:04;101368.06;;;16.85;56.06
73453;BME280;61687;56.232;43.854;2023-05-14T12:51:31;101363.88;;;17.06;54.10
73453;BME280;61687;56.232;43.854;2023-05-14T12:53:57;101365.50;;;17.17;53.61